Time;durP1;ratioP1;P1;durP2;ratioP2;P2;SDS_P1;SDS_P2;PMS_P1;PMS_P2;Temp;Humidity;BMP_temperature;BMP_pressure;BME280_temperature;BME280_humidity;BME280_pressure;Samples;Min_cycle;Max_cycle;Signal;HPM_P1;HPM_P2
2022/10/01 00:00:59;;;;;;;35.95;31.00;;;;;;;17.77;90.80;99612.83;1680005;84;21074;-81
2022/10/01 00:03:26;;;;;;;34.08;29.48;;;;;;;17.68;91.14;99602.85;1671964;84;21225;-80
2022/10/01 00:06:02;;;;;;;34.08;29.48;;;;;;;17.61;91.47;99599.38;1686628;83;21128;-78
2022/10/01 00:08:29;;;;;;;33.48;29.85;;;;;;;17.62;91.70;99598.88;1690978;84;21088;-80
2022/10/01 00:11:00;;;;;;;39.38;32.20;;;;;;;17.56;91.82;99601.91;1706003;82;21033;-78
2022/10/01 00:13:26;;;;;;;38.58;29.50;;;;;;;17.48;92.07;99602.16;1700649;83;21108;-81
2022/10/01 00:15:53;;;;;;;33.55;28.17;;;;;;;17.44;92.22;99607.16;1687903;84;21201;-80
2022/10/01 00:18:19;;;;;;;34.25;29.52;;;;;;;17.51;92.13;99603.61;1705912;83;21029;-82
2022/10/01 00:20:46;;;;;;;34.40;29.50;;;;;;;17.49;91.85;99601.94;1676808;84;21096;-81
2022/10/01 00:23:13;;;;;;;33.70;30.27;;;;;;;17.43;91.73;99611.40;1669981;85;21075;-80
2022/10/01 00:25:40;;;;;;;32.00;28.57;;;;;;;17.36;91.90;99610.08;1677135;82;21087;-80
2022/10/01 00:28:07;;;;;;;36.55;28.00;;;;;;;17.35;92.13;99610.31;1735474;81;21591;-79
2022/10/01 00:30:34;;;;;;;34.95;29.55;;;;;;;17.38;92.23;99605.31;1736637;82;21056;-81
2022/10/01 00:33:00;;;;;;;37.08;30.80;;;;;;;17.33;92.45;99605.16;1708517;82;21002;-78
2022/10/01 00:35:27;;;;;;;29.57;26.40;;;;;;;17.26;92.98;99605.70;1738572;82;21012;-79
2022/10/01 00:37:54;;;;;;;30.80;26.42;;;;;;;17.20;93.36;99599.33;1707923;82;21033;-80
2022/10/01 00:40:21;;;;;;;32.28;26.30;;;;;;;17.20;93.44;99591.28;1737713;81;21106;-82
2022/10/01 00:42:47;;;;;;;33.35;29.32;;;;;;;17.14;93.48;99594.02;1694489;84;21556;-81
2022/10/01 00:45:15;;;;;;;28.17;24.75;;;;;;;17.03;93.64;99595.50;1669988;85;21227;-80
2022/10/01 00:47:52;;;;;;;27.27;22.95;;;;;;;16.97;93.70;99597.70;1706460;82;21070;-81
2022/10/01 00:50:33;;;;;;;27.73;23.75;;;;;;;16.97;93.26;99593.15;1702820;82;21068;-80
2022/10/01 00:53:07;;;;;;;26.57;23.73;;;;;;;16.91;93.10;99596.69;1708383;82;21242;-81
2022/10/01 00:55:35;;;;;;;;;;;;;;;16.79;93.28;99600.53;1738758;81;21020;-80
2022/10/01 00:58:06;;;;;;;27.98;23.75;;;;;;;16.79;93.32;99601.87;1734868;81;20138;-81
2022/10/01 01:00:32;;;;;;;27.42;24.15;;;;;;;16.81;93.20;99594.95;1736779;81;22396;-82
2022/10/01 01:02:59;;;;;;;26.17;23.18;;;;;;;16.75;93.04;99602.52;1705176;82;21056;-78
2022/10/01 01:05:26;;;;;;;23.83;21.33;;;;;;;16.65;92.92;99601.09;1730517;81;21251;-80
2022/10/01 01:07:53;;;;;;;26.52;22.13;;;;;;;16.62;92.78;99602.03;1717309;82;21053;-81
2022/10/01 01:10:47;;;;;;;25.35;21.05;;;;;;;16.63;92.48;99597.80;1718942;81;21006;-78
2022/10/01 01:13:49;;;;;;;25.80;21.50;;;;;;;16.59;92.17;99594.39;1716290;82;21029;-80
2022/10/01 01:16:38;;;;;;;22.93;19.32;;;;;;;16.46;91.90;99593.41;1718748;82;21038;-77
2022/10/01 01:19:28;;;;;;;23.00;20.35;;;;;;;16.44;91.95;99591.98;1685620;83;21176;-79
2022/10/01 01:21:59;;;;;;;24.85;19.40;;;;;;;16.40;91.74;99589.39;1680984;84;21036;-80
2022/10/01 01:24:45;;;;;;;20.95;18.17;;;;;;;16.33;91.79;99580.55;1653586;84;21072;-80
2022/10/01 01:27:40;;;;;;;21.27;18.23;;;;;;;16.32;91.69;99583.73;1669481;84;21076;-81
2022/10/01 01:30:10;;;;;;;21.95;19.37;;;;;;;16.38;91.19;99586.09;1670557;84;21050;-79
2022/10/01 01:32:58;;;;;;;20.80;18.70;;;;;;;16.31;90.78;99589.61;1664884;84;21462;-78
2022/10/01 01:35:32;;;;;;;19.17;16.87;;;;;;;16.24;90.81;99587.45;1648440;85;21062;-76
2022/10/01 01:38:03;;;;;;;18.70;16.50;;;;;;;16.23;90.59;99590.37;1720645;83;21037;-79
2022/10/01 01:40:31;;;;;;;18.85;16.62;;;;;;;16.24;89.99;99599.52;1706510;83;21540;-79
2022/10/01 01:42:59;;;;;;;18.50;14.87;;;;;;;16.17;89.85;99597.87;1674540;83;21045;-80
2022/10/01 01:45:27;;;;;;;16.62;14.20;;;;;;;16.07;89.60;99592.94;1713808;82;21246;-81
2022/10/01 01:47:54;;;;;;;17.57;15.13;;;;;;;16.06;89.57;99599.34;1719106;81;21024;-79
2022/10/01 01:50:23;;;;;;;17.75;15.65;;;;;;;16.07;89.15;99591.60;1716021;82;21021;-78
2022/10/01 01:52:50;;;;;;;17.65;14.55;;;;;;;16.01;89.23;99599.98;1685970;83;21022;-79
2022/10/01 01:55:17;;;;;;;17.00;13.60;;;;;;;15.93;89.09;99601.51;1668108;84;21010;-79
2022/10/01 01:57:44;;;;;;;16.07;14.05;;;;;;;15.94;88.94;99599.67;1683599;83;21735;-80
2022/10/01 02:00:13;;;;;;;17.50;12.98;;;;;;;15.96;88.73;99605.13;1666051;84;21060;-79
2022/10/01 02:02:40;;;;;;;16.85;12.68;;;;;;;15.90;88.82;99594.72;1722447;81;21029;-79
2022/10/01 02:08:06;;;;;;;15.13;12.00;;;;;;;15.89;89.03;99596.25;1878346;74;28043;-80
2022/10/01 02:10:48;;;;;;;13.40;11.10;;;;;;;15.80;88.91;99596.99;1832277;75;20899;-80
2022/10/01 02:13:33;;;;;;;13.38;10.82;;;;;;;15.71;89.27;99602.20;1775953;80;21220;-80
2022/10/01 02:16:09;;;;;;;14.43;11.05;;;;;;;15.72;89.45;99600.66;1792437;78;21488;-78
2022/10/01 02:18:42;;;;;;;12.78;11.45;;;;;;;15.73;89.25;99602.33;1788259;80;21021;-78
2022/10/01 02:21:35;;;;;;;13.03;10.53;;;;;;;15.69;89.63;99608.28;1786663;77;21038;-79
2022/10/01 02:24:13;;;;;;;13.10;10.08;;;;;;;15.65;89.84;99610.54;1784176;78;20938;-80
2022/10/01 02:26:42;;;;;;;11.68;10.38;;;;;;;15.64;89.89;99597.34;1801275;78;21230;-79
2022/10/01 02:29:12;;;;;;;12.93;9.98;;;;;;;15.53;90.27;99590.77;1803897;78;20879;-81
2022/10/01 02:31:38;;;;;;;11.15;9.95;;;;;;;15.51;90.64;99600.33;1794248;78;21020;-79
2022/10/01 02:34:05;;;;;;;12.73;10.58;;;;;;;15.55;90.39;99599.41;1820143;78;20981;-78
2022/10/01 02:36:33;;;;;;;13.58;11.65;;;;;;;15.54;90.44;99612.47;1798217;77;21054;-79
2022/10/01 02:38:59;;;;;;;11.90;10.43;;;;;;;15.47;90.69;99600.43;1811461;78;21093;-74
2022/10/01 02:41:32;;;;;;;11.80;9.45;;;;;;;15.49;90.80;99597.03;1783110;80;21506;-81
2022/10/01 02:44:03;;;;;;;11.75;10.50;;;;;;;15.57;90.70;99596.50;1821369;78;21029;-81
2022/10/01 02:46:44;;;;;;;12.15;10.95;;;;;;;15.55;90.74;99598.08;1808927;78;21052;-79
2022/10/01 02:49:12;;;;;;;12.93;10.03;;;;;;;15.49;90.94;99605.55;1804662;78;20996;-78
2022/10/01 02:52:09;;;;;;;14.43;11.15;;;;;;;15.50;91.00;99605.88;1770366;79;21129;-81
2022/10/01 02:54:58;;;;;;;13.03;10.53;;;;;;;15.52;90.75;99603.30;1747550;80;21089;-80
2022/10/01 02:57:28;;;;;;;10.18;9.05;;;;;;;15.43;90.93;99592.50;1774038;78;21059;-79
2022/10/01 03:00:00;;;;;;;10.50;9.35;;;;;;;15.45;90.86;99600.30;1805389;78;21096;-81
2022/10/01 03:02:28;;;;;;;10.75;9.03;;;;;;;15.48;90.54;99595.89;1812949;77;21010;-79
2022/10/01 03:04:56;;;;;;;10.53;9.05;;;;;;;15.42;90.48;99599.39;1787445;79;21296;-80
2022/10/01 03:07:24;;;;;;;11.65;9.55;;;;;;;15.40;90.43;99600.92;1820160;78;21113;-80
2022/10/01 03:09:51;;;;;;;9.85;8.80;;;;;;;15.44;90.21;99602.16;1816681;77;21033;-79
2022/10/01 03:12:22;;;;;;;13.65;8.83;;;;;;;15.41;90.00;99605.75;1787019;79;21031;-81
2022/10/01 03:14:48;;;;;;;10.00;8.75;;;;;;;15.36;90.15;99610.91;1791393;78;21055;-79
2022/10/01 03:17:15;;;;;;;10.58;9.48;;;;;;;15.36;90.03;99610.91;1772017;78;21203;-80
2022/10/01 03:19:42;;;;;;;11.05;8.58;;;;;;;15.33;90.14;99620.97;1772665;80;22127;-82
2022/10/01 03:22:10;;;;;;;9.10;8.10;;;;;;;15.31;89.95;99619.00;1784486;78;21053;-79
2022/10/01 03:24:37;;;;;;;11.33;8.65;;;;;;;15.30;89.61;99627.27;1774918;80;20986;-80
2022/10/01 03:27:03;;;;;;;10.82;8.45;;;;;;;15.28;89.63;99621.28;1801138;78;20986;-77
2022/10/01 03:29:30;;;;;;;9.20;7.95;;;;;;;15.22;89.75;99630.94;1794967;77;21330;-79
2022/10/01 03:31:56;;;;;;;8.58;7.55;;;;;;;15.24;89.76;99631.56;1815302;78;21505;-81
2022/10/01 03:34:23;;;;;;;10.18;8.63;;;;;;;15.29;89.64;99617.57;1804490;78;21536;-81
2022/10/01 03:36:51;;;;;;;10.68;7.58;;;;;;;15.28;89.67;99613.26;1756001;80;22013;-81
2022/10/01 03:39:18;;;;;;;8.78;7.78;;;;;;;15.24;89.82;99618.67;1768508;78;21315;-80
2022/10/01 03:41:45;;;;;;;8.45;7.65;;;;;;;15.30;89.37;99613.88;1764577;79;21145;-80
2022/10/01 03:44:11;;;;;;;9.00;7.70;;;;;;;15.33;89.06;99614.80;1812869;78;21038;-80
2022/10/01 03:46:38;;;;;;;9.78;8.18;;;;;;;15.29;88.87;99606.86;1767534;79;21727;-79
2022/10/01 03:49:04;;;;;;;9.83;8.35;;;;;;;15.22;89.01;99616.72;1789096;78;21024;-80
2022/10/01 03:51:32;;;;;;;8.75;7.25;;;;;;;15.20;89.10;99624.12;1812032;77;21520;-79
2022/10/01 03:53:59;;;;;;;10.03;8.00;;;;;;;15.20;89.02;99630.81;1784569;79;21126;-78
2022/10/01 03:56:25;;;;;;;10.90;9.03;;;;;;;15.14;89.03;99630.61;1800844;78;20987;-80
2022/10/01 03:58:52;;;;;;;9.40;8.40;;;;;;;15.06;89.28;99623.25;1803966;77;21032;-80
2022/10/01 04:01:18;;;;;;;9.70;8.75;;;;;;;15.03;89.69;99628.50;1801978;78;21042;-81
2022/10/01 04:03:45;;;;;;;9.85;8.88;;;;;;;15.04;89.64;99621.30;1819580;77;21000;-79
2022/10/01 04:06:12;;;;;;;9.23;8.18;;;;;;;14.99;89.86;99617.05;1768992;79;21832;-80
2022/10/01 04:08:38;;;;;;;9.23;8.23;;;;;;;14.90;90.31;99615.08;1813743;78;21536;-79
2022/10/01 04:11:06;;;;;;;8.98;8.08;;;;;;;14.93;90.56;99630.22;1779884;79;21029;-78
2022/10/01 04:13:34;;;;;;;9.58;8.60;;;;;;;14.93;90.62;99628.03;1811842;78;21496;-78
2022/10/01 04:16:02;;;;;;;9.85;8.78;;;;;;;14.89;90.84;99626.78;1780191;79;21465;-77
2022/10/01 04:18:29;;;;;;;8.78;7.90;;;;;;;14.84;91.07;99637.27;1808426;77;21528;-78
2022/10/01 04:20:56;;;;;;;9.35;8.20;;;;;;;14.88;91.19;99631.31;1820475;78;20963;-79
2022/10/01 04:23:24;;;;;;;9.65;8.73;;;;;;;14.93;91.09;99634.72;1787275;78;20974;-82
2022/10/01 04:25:50;;;;;;;9.55;8.65;;;;;;;14.89;91.13;99620.09;1800395;79;21027;-85
2022/10/01 04:28:17;;;;;;;12.65;8.65;;;;;;;14.86;91.35;99631.20;1797437;78;21087;-84
2022/10/01 04:30:44;;;;;;;9.55;8.60;;;;;;;14.91;91.33;99634.94;1823017;78;21197;-84
2022/10/01 04:33:15;;;;;;;9.65;8.68;;;;;;;14.97;91.26;99638.67;1803792;77;21025;-83
2022/10/01 04:35:42;;;;;;;8.98;8.08;;;;;;;14.93;91.29;99638.73;1797760;79;21535;-81
2022/10/01 04:38:14;;;;;;;11.08;7.58;;;;;;;14.94;91.19;99631.03;1801052;77;21478;-83
2022/10/01 04:40:42;;;;;;;12.00;9.08;;;;;;;15.04;90.96;99645.38;1820043;78;21002;-84
2022/10/01 04:43:09;;;;;;;10.78;8.23;;;;;;;15.00;90.87;99638.78;1830309;78;21110;-81
2022/10/01 04:45:36;;;;;;;11.30;8.03;;;;;;;15.01;90.95;99625.70;1764798;79;21505;-82
2022/10/01 04:48:03;;;;;;;9.50;8.50;;;;;;;15.05;90.83;99629.65;1824547;78;21041;-82
2022/10/01 04:50:30;;;;;;;9.53;8.13;;;;;;;15.04;90.77;99638.16;1791517;79;20970;-82
2022/10/01 04:52:56;;;;;;;9.13;8.23;;;;;;;14.99;90.92;99637.95;1811043;77;20997;-81
2022/10/01 04:55:23;;;;;;;9.43;8.05;;;;;;;15.00;90.89;99641.45;1806028;77;21238;-81
2022/10/01 04:57:50;;;;;;;12.60;9.28;;;;;;;15.05;90.68;99642.50;1818130;77;21029;-79
2022/10/01 05:00:20;;;;;;;12.53;8.65;;;;;;;15.04;90.65;99644.03;1825365;77;21040;-83
2022/10/01 05:02:49;;;;;;;12.88;8.83;;;;;;;14.98;90.79;99651.00;1793365;79;21088;-79
2022/10/01 05:05:18;;;;;;;8.23;7.37;;;;;;;14.96;90.91;99662.94;1805146;78;21021;-83
2022/10/01 05:07:45;;;;;;;7.80;6.85;;;;;;;15.03;90.77;99661.12;1814347;78;21126;-84
2022/10/01 05:10:15;;;;;;;10.50;8.23;;;;;;;15.07;90.52;99659.18;1804361;78;21005;-82
2022/10/01 05:12:42;;;;;;;8.58;7.53;;;;;;;15.05;90.29;99659.89;1805029;78;21582;-83
2022/10/01 05:15:10;;;;;;;8.70;7.62;;;;;;;15.02;90.32;99668.30;1816320;78;21066;-80
2022/10/01 05:17:37;;;;;;;8.40;7.45;;;;;;;15.09;90.25;99667.02;1812497;78;20999;-81
2022/10/01 05:20:06;;;;;;;9.00;8.10;;;;;;;15.18;89.97;99659.10;1809760;77;21241;-77
2022/10/01 05:22:32;;;;;;;8.68;7.80;;;;;;;15.19;90.00;99661.29;1823118;77;20966;-81
2022/10/01 05:24:59;;;;;;;8.50;7.47;;;;;;;15.23;89.95;99665.21;1825230;78;21046;-83
2022/10/01 05:27:27;;;;;;;8.93;7.97;;;;;;;15.34;89.53;99662.78;1792003;78;21069;-83
2022/10/01 05:29:53;;;;;;;9.05;7.28;;;;;;;15.38;89.33;99659.71;1792038;78;21010;-83
2022/10/01 05:32:20;;;;;;;11.38;7.87;;;;;;;15.38;89.42;99663.20;1808555;77;21997;-81
2022/10/01 05:34:47;;;;;;;9.85;7.55;;;;;;;15.45;89.25;99668.08;1814758;78;21091;-83
2022/10/01 05:37:13;;;;;;;9.25;7.60;;;;;;;15.61;88.76;99670.07;1764157;80;21019;-84
2022/10/01 05:39:40;;;;;;;8.43;7.58;;;;;;;15.64;88.56;99671.80;1810591;78;21103;-82
2022/10/01 05:42:06;;;;;;;9.28;7.30;;;;;;;15.66;88.37;99670.27;1797108;78;21011;-80
2022/10/01 05:44:38;;;;;;;9.23;7.42;;;;;;;15.75;88.30;99659.71;1802268;78;21079;-81
2022/10/01 05:47:02;;;;;;;9.23;7.40;;;;;;;15.94;87.73;99657.27;1815583;78;20978;-79
2022/10/01 05:49:28;;;;;;;8.45;7.55;;;;;;;16.03;87.41;99662.72;1820048;78;21124;-80
2022/10/01 05:51:56;;;;;;;7.55;6.72;;;;;;;16.08;86.89;99659.73;1809077;77;21013;-80
2022/10/01 05:54:23;;;;;;;9.13;6.95;;;;;;;16.22;86.52;99667.77;1770472;80;21001;-81
2022/10/01 05:56:50;;;;;;;11.18;7.33;;;;;;;16.39;85.71;99667.66;1778747;78;21613;-81
2022/10/01 05:59:17;;;;;;;12.03;8.20;;;;;;;16.45;85.26;99660.11;1781267;78;21033;-80
2022/10/01 06:01:45;;;;;;;8.08;6.28;;;;;;;16.45;84.90;99657.95;1813651;78;21003;-77
2022/10/01 06:04:11;;;;;;;8.43;6.50;;;;;;;16.47;85.01;99651.88;1819275;77;20990;-76
2022/10/01 06:06:38;;;;;;;7.10;6.40;;;;;;;16.53;84.50;99651.55;1783515;79;21502;-78
2022/10/01 06:09:04;;;;;;;7.72;7.03;;;;;;;16.48;84.16;99662.92;1787012;78;21809;-78
2022/10/01 06:11:35;;;;;;;10.85;6.72;;;;;;;16.44;84.11;99651.78;1765301;78;21616;-77
2022/10/01 06:14:02;;;;;;;8.70;6.83;;;;;;;16.47;84.02;99654.03;1758553;79;21108;-76
2022/10/01 06:16:29;;;;;;;8.48;7.15;;;;;;;16.55;83.40;99661.03;1807433;77;20963;-76
2022/10/01 06:18:56;;;;;;;10.13;7.17;;;;;;;16.52;83.10;99665.48;1780605;78;21564;-76
2022/10/01 06:21:24;;;;;;;7.47;6.72;;;;;;;16.46;83.21;99674.38;1773626;79;21482;-76
2022/10/01 06:23:51;;;;;;;7.22;6.53;;;;;;;16.53;83.21;99664.96;1788744;80;21597;-78
2022/10/01 06:26:18;;;;;;;7.90;7.05;;;;;;;16.62;83.17;99662.38;1797189;78;21199;-77
2022/10/01 06:28:44;;;;;;;8.95;6.72;;;;;;;16.65;82.79;99661.94;1786530;78;21010;-76
2022/10/01 06:31:12;;;;;;;9.85;6.58;;;;;;;16.65;82.64;99665.95;1807507;77;21018;-76
2022/10/01 06:33:38;;;;;;;9.28;6.53;;;;;;;16.73;82.51;99667.09;1819564;78;21493;-78
2022/10/01 06:36:05;;;;;;;9.18;6.22;;;;;;;16.83;81.96;99666.69;1795375;77;21006;-76
2022/10/01 06:38:32;;;;;;;6.92;6.22;;;;;;;16.86;81.77;99674.30;1822678;78;21052;-79
2022/10/01 06:41:00;;;;;;;7.12;5.62;;;;;;;16.87;81.11;99673.28;1801077;79;21003;-76
2022/10/01 06:43:28;;;;;;;7.10;5.80;;;;;;;16.96;81.57;99672.02;1790156;79;21540;-77
2022/10/01 06:46:01;;;;;;;8.30;6.53;;;;;;;17.12;80.85;99676.08;1813772;78;21249;-76
2022/10/01 06:48:30;;;;;;;6.83;6.12;;;;;;;17.19;79.93;99673.36;1787360;78;21068;-77
2022/10/01 06:50:57;;;;;;;6.40;5.80;;;;;;;17.22;79.88;99670.27;1791818;79;21062;-77
2022/10/01 06:53:24;;;;;;;6.83;5.58;;;;;;;17.27;79.20;99678.52;1788259;78;21001;-76
2022/10/01 06:55:50;;;;;;;6.05;5.42;;;;;;;17.36;79.03;99673.17;1821950;78;21002;-77
2022/10/01 06:58:20;;;;;;;5.95;5.05;;;;;;;17.49;78.72;99670.95;1792158;78;21224;-76
2022/10/01 07:00:47;;;;;;;5.92;5.30;;;;;;;17.54;78.31;99670.30;1764809;79;21002;-75
2022/10/01 07:03:19;;;;;;;5.25;4.75;;;;;;;17.57;78.26;99676.59;1759584;79;21153;-78
2022/10/01 07:05:48;;;;;;;;;;;;;;;17.65;77.32;99674.49;1802757;77;21017;-77
2022/10/01 07:08:14;;;;;;;5.17;4.70;;;;;;;17.76;76.64;99676.17;1806001;78;20128;-77
2022/10/01 07:10:43;;;;;;;9.23;7.22;;;;;;;17.89;76.44;99676.12;1812110;77;21187;-78
2022/10/01 07:13:13;;;;;;;5.40;4.75;;;;;;;17.91;75.88;99673.22;1818681;78;21009;-76
2022/10/01 07:15:40;;;;;;;5.55;5.05;;;;;;;17.93;76.23;99673.30;1819638;78;20985;-79
2022/10/01 07:18:08;;;;;;;7.03;5.12;;;;;;;17.98;75.94;99669.45;1808942;78;21053;-79
2022/10/01 07:20:38;;;;;;;5.83;4.47;;;;;;;18.05;76.28;99667.50;1780356;80;21081;-79
2022/10/01 07:23:18;;;;;;;4.47;3.92;;;;;;;18.23;76.02;99663.23;1814199;77;22027;-78
2022/10/01 07:25:44;;;;;;;4.87;4.37;;;;;;;18.42;75.43;99658.19;1772573;80;21030;-78
2022/10/01 07:28:16;;;;;;;5.08;4.58;;;;;;;18.57;74.35;99666.45;1772863;79;20981;-79
2022/10/01 07:30:59;;;;;;;4.78;4.15;;;;;;;18.61;73.59;99659.57;1768697;80;21053;-80
2022/10/01 07:33:26;;;;;;;4.37;3.98;;;;;;;18.65;73.35;99662.92;1792771;78;21541;-78
2022/10/01 07:35:53;;;;;;;4.00;3.47;;;;;;;18.75;72.82;99669.66;1796252;78;21486;-80
2022/10/01 07:38:20;;;;;;;4.92;3.33;;;;;;;18.80;72.36;99657.75;1772668;80;21057;-80
2022/10/01 07:40:51;;;;;;;4.40;4.00;;;;;;;18.84;72.35;99657.59;1801691;78;21209;-79
2022/10/01 07:43:18;;;;;;;5.90;3.40;;;;;;;18.89;71.67;99667.68;1771567;80;21092;-80
2022/10/01 07:45:48;;;;;;;5.20;3.70;;;;;;;18.86;71.19;99664.92;1764411;79;21009;-79
2022/10/01 07:48:15;;;;;;;4.20;3.52;;;;;;;18.85;71.28;99657.88;1791544;78;21210;-77
2022/10/01 07:50:47;;;;;;;3.92;3.42;;;;;;;18.95;71.58;99664.93;1769722;78;21060;-78
2022/10/01 07:53:11;;;;;;;3.80;3.50;;;;;;;19.11;71.57;99664.02;1802848;78;21022;-77
2022/10/01 07:55:40;;;;;;;6.70;3.83;;;;;;;19.28;71.13;99656.13;1797842;78;21135;-80
2022/10/01 07:58:10;;;;;;;3.30;3.00;;;;;;;19.41;70.29;99651.41;1765595;79;21140;-77
2022/10/01 08:00:37;;;;;;;3.17;2.87;;;;;;;19.51;69.74;99652.20;1787663;78;22240;-78
2022/10/01 08:03:04;;;;;;;3.12;2.72;;;;;;;19.55;69.34;99650.69;1785438;79;21043;-77
2022/10/01 08:05:33;;;;;;;2.55;2.10;;;;;;;19.58;67.87;99652.09;1791536;79;21077;-76
2022/10/01 08:08:03;;;;;;;2.83;2.08;;;;;;;19.54;66.92;99649.03;1792504;78;21044;-77
2022/10/01 08:10:32;;;;;;;2.77;2.27;;;;;;;19.48;67.47;99649.95;1779255;79;21566;-76
2022/10/01 08:13:00;;;;;;;2.27;2.00;;;;;;;19.42;67.01;99660.30;1819364;78;21169;-74
2022/10/01 08:15:28;;;;;;;2.85;2.10;;;;;;;19.41;67.06;99655.45;1774564;80;21061;-75
2022/10/01 08:17:54;;;;;;;2.10;2.00;;;;;;;19.45;66.71;99657.98;1809554;77;21108;-75
2022/10/01 08:20:21;;;;;;;1.98;1.85;;;;;;;19.54;66.87;99652.27;1797766;79;21458;-74
2022/10/01 08:22:47;;;;;;;3.27;1.77;;;;;;;19.64;66.79;99643.94;1793737;78;20993;-75
2022/10/01 08:25:14;;;;;;;2.25;2.05;;;;;;;19.76;65.39;99631.02;1807253;77;21085;-74
2022/10/01 08:27:41;;;;;;;2.42;2.12;;;;;;;19.84;65.77;99629.36;1766777;79;20998;-75
2022/10/01 08:30:09;;;;;;;3.65;1.67;;;;;;;19.90;65.64;99625.73;1820463;77;21048;-76
2022/10/01 08:32:35;;;;;;;2.12;1.92;;;;;;;19.94;66.10;99624.74;1757960;79;21084;-75
2022/10/01 08:35:03;;;;;;;2.70;2.15;;;;;;;19.96;65.44;99634.77;1787415;78;21068;-77
2022/10/01 08:37:30;;;;;;;2.25;1.82;;;;;;;19.86;65.50;99638.54;1793695;79;21511;-76
2022/10/01 08:39:57;;;;;;;3.85;2.25;;;;;;;19.79;65.34;99645.39;1791248;78;21006;-75
2022/10/01 08:42:58;;;;;;;7.62;2.40;;;;;;;19.76;65.85;99637.25;1775256;79;21013;-77
2022/10/01 08:45:41;;;;;;;1.85;1.75;;;;;;;19.82;65.82;99648.98;1782785;78;21048;-76
2022/10/01 08:48:39;;;;;;;2.30;1.75;;;;;;;19.96;64.34;99645.55;1803098;78;21037;-77
2022/10/01 08:51:20;;;;;;;2.08;1.90;;;;;;;20.17;64.82;99638.24;1774399;79;21208;-76
2022/10/01 08:54:00;;;;;;;2.37;1.72;;;;;;;20.40;63.92;99640.66;1789464;78;21017;-76
2022/10/01 08:56:31;;;;;;;2.02;1.82;;;;;;;20.64;63.33;99648.23;1796901;78;21006;-77
2022/10/01 08:59:01;;;;;;;1.70;1.60;;;;;;;21.01;61.51;99638.47;1816712;78;21021;-76
2022/10/01 09:01:29;;;;;;;2.12;1.65;;;;;;;21.43;60.53;99647.66;1768623;79;21122;-75
2022/10/01 09:03:58;;;;;;;2.58;2.00;;;;;;;21.75;59.45;99645.30;1807910;78;21141;-76
2022/10/01 09:06:26;;;;;;;1.82;1.72;;;;;;;21.87;58.81;99645.23;1768657;79;21380;-76
2022/10/01 09:09:26;;;;;;;2.30;1.85;;;;;;;21.80;58.85;99650.78;1786548;77;22451;-76
2022/10/01 09:12:22;;;;;;;2.30;2.05;;;;;;;21.62;59.65;99655.07;1789397;78;21028;-75
2022/10/01 09:15:07;;;;;;;2.33;1.87;;;;;;;21.33;60.06;99644.23;1788855;79;21024;-76
2022/10/01 09:17:48;;;;;;;2.30;1.70;;;;;;;21.09;60.86;99646.19;1793302;77;21052;-75
2022/10/01 09:20:35;;;;;;;1.95;1.75;;;;;;;20.91;61.02;99658.52;1771620;80;21074;-75
2022/10/01 09:23:09;;;;;;;2.30;2.10;;;;;;;20.74;61.47;99661.12;1721983;82;21628;-76
2022/10/01 09:25:37;;;;;;;2.20;1.85;;;;;;;20.72;61.53;99659.19;1778042;78;21017;-76
2022/10/01 09:28:22;;;;;;;3.37;2.15;;;;;;;20.86;61.05;99651.66;1750090;80;21060;-75
2022/10/01 09:31:03;;;;;;;2.20;1.85;;;;;;;21.23;61.02;99663.47;1790921;78;21823;-76
2022/10/01 09:33:35;;;;;;;2.77;2.10;;;;;;;21.92;59.70;99655.30;1788852;80;20994;-77
2022/10/01 09:36:27;;;;;;;2.30;2.10;;;;;;;22.69;57.73;99660.56;1795256;77;21432;-75
2022/10/01 09:39:05;;;;;;;3.60;2.10;;;;;;;23.16;56.78;99659.58;1767839;80;20981;-76
2022/10/01 09:41:32;;;;;;;2.15;1.95;;;;;;;23.78;55.30;99658.03;1800841;78;20966;-75
2022/10/01 09:43:58;;;;;;;1.90;1.80;;;;;;;24.24;53.17;99653.02;1784969;78;21110;-75
2022/10/01 09:46:25;;;;;;;2.30;2.10;;;;;;;24.57;52.67;99652.44;1789721;78;21033;-75
2022/10/01 09:49:03;;;;;;;2.15;1.98;;;;;;;24.96;51.86;99646.13;1786282;80;21481;-73
2022/10/01 09:51:39;;;;;;;2.10;1.95;;;;;;;25.37;50.29;99650.92;1808509;78;21029;-76
2022/10/01 09:54:20;;;;;;;2.20;2.00;;;;;;;25.42;48.78;99656.34;1816896;77;21196;-74
2022/10/01 09:57:00;;;;;;;2.58;1.45;;;;;;;25.47;49.11;99649.02;1778116;79;22811;-75
2022/10/01 09:59:49;;;;;;;2.92;1.95;;;;;;;25.47;48.97;99657.18;1792211;78;21022;-75
2022/10/01 10:02:21;;;;;;;2.02;1.80;;;;;;;25.61;49.43;99645.78;1790205;78;21005;-74
2022/10/01 10:05:07;;;;;;;2.77;1.80;;;;;;;25.95;48.71;99655.64;1788295;78;21061;-74
2022/10/01 10:07:34;;;;;;;1.80;1.70;;;;;;;26.07;48.30;99641.20;1783594;78;21560;-75
2022/10/01 10:10:12;;;;;;;2.90;2.30;;;;;;;26.03;48.07;99644.75;1726892;80;21109;-75
2022/10/01 10:12:38;;;;;;;2.55;1.70;;;;;;;25.90;48.43;99657.80;1813067;78;21013;-74
2022/10/01 10:15:15;;;;;;;2.00;1.77;;;;;;;25.62;48.31;99652.88;1818422;77;21049;-75
2022/10/01 10:17:45;;;;;;;1.90;1.75;;;;;;;25.20;49.08;99649.20;1785074;79;21026;-75
2022/10/01 10:20:23;;;;;;;1.90;1.75;;;;;;;24.87;49.78;99645.81;1789220;79;21049;-75
2022/10/01 10:22:51;;;;;;;2.45;1.92;;;;;;;24.76;50.57;99657.70;1775894;80;22169;-76
2022/10/01 10:25:23;;;;;;;2.30;2.10;;;;;;;24.66;50.49;99650.87;1790429;78;21458;-75
2022/10/01 10:27:54;;;;;;;2.87;1.83;;;;;;;24.63;50.79;99648.70;1790009;79;21017;-76
2022/10/01 10:30:23;;;;;;;2.52;2.33;;;;;;;24.40;50.94;99652.05;1798410;77;21474;-75
2022/10/01 10:32:50;;;;;;;2.02;1.82;;;;;;;24.19;51.42;99644.86;1787604;80;21045;-75
2022/10/01 10:35:25;;;;;;;2.42;2.15;;;;;;;24.05;52.08;99645.81;1820156;78;21186;-76
2022/10/01 10:37:53;;;;;;;2.00;1.90;;;;;;;24.12;52.08;99629.59;1786718;79;21050;-76
2022/10/01 10:40:27;;;;;;;2.45;2.20;;;;;;;24.17;51.97;99629.38;1821836;78;21513;-76
2022/10/01 10:42:55;;;;;;;2.40;1.95;;;;;;;24.13;51.68;99627.16;1754438;80;21173;-75
2022/10/01 10:45:32;;;;;;;2.70;1.90;;;;;;;23.98;52.04;99629.77;1817691;78;21050;-75
2022/10/01 10:47:59;;;;;;;2.08;1.82;;;;;;;23.77;52.60;99637.42;1795077;78;21863;-74
2022/10/01 10:50:33;;;;;;;3.52;2.00;;;;;;;23.44;53.47;99624.38;1793894;78;21009;-75
2022/10/01 10:53:20;;;;;;;2.30;2.00;;;;;;;23.23;53.73;99624.14;1820733;77;21021;-74
2022/10/01 10:55:59;;;;;;;2.10;1.90;;;;;;;23.06;54.23;99623.41;1803865;78;21005;-74
2022/10/01 10:58:30;;;;;;;2.87;1.80;;;;;;;22.85;54.56;99623.66;1783358;79;21032;-74
2022/10/01 11:00:59;;;;;;;2.17;1.98;;;;;;;22.55;55.02;99616.25;1760613;79;21237;-73
2022/10/01 11:03:29;;;;;;;2.10;1.90;;;;;;;22.35;55.85;99619.50;1761933;79;21065;-75
2022/10/01 11:06:05;;;;;;;2.17;1.90;;;;;;;22.22;56.37;99619.00;1808923;78;21053;-74
2022/10/01 11:08:34;;;;;;;3.25;2.27;;;;;;;22.10;57.00;99613.15;1769365;78;21135;-74
2022/10/01 11:11:26;;;;;;;7.22;4.75;;;;;;;21.95;57.49;99615.07;1820012;77;21506;-74
2022/10/01 11:14:21;;;;;;;1.98;1.75;;;;;;;21.93;57.75;99612.34;1785208;80;21150;-75
2022/10/01 11:17:26;;;;;;;3.25;2.10;;;;;;;21.88;57.90;99617.11;1797114;78;20986;-76
2022/10/01 11:20:32;;;;;;;3.35;2.30;;;;;;;21.79;58.37;99613.20;1749790;80;21569;-75
2022/10/01 11:23:26;;;;;;;3.60;2.22;;;;;;;21.62;58.41;99613.72;1770644;78;21062;-76
2022/10/01 11:26:20;;;;;;;3.20;2.15;;;;;;;21.44;58.80;99612.03;1787112;79;21854;-75
2022/10/01 11:28:59;;;;;;;;;;;;;;;21.35;59.32;99604.83;1815280;78;21108;-74
2022/10/01 11:31:34;;;;;;;3.12;2.20;;;;;;;21.26;59.75;99607.08;1801038;78;20756;-76
2022/10/01 11:34:36;;;;;;;3.27;1.95;;;;;;;21.15;60.18;99607.95;1817522;78;21038;-73
2022/10/01 11:37:09;;;;;;;3.05;2.15;;;;;;;21.05;60.52;99602.36;1817615;78;21085;-75
2022/10/01 11:39:38;;;;;;;5.72;2.42;;;;;;;20.97;60.91;99595.45;1798353;79;21020;-74
2022/10/01 11:42:11;;;;;;;2.92;2.30;;;;;;;20.89;61.15;99598.00;1789816;78;21141;-73
2022/10/01 11:45:16;;;;;;;4.37;2.27;;;;;;;20.80;61.62;99596.73;1802781;78;21018;-75
2022/10/01 11:47:59;;;;;;;5.22;2.50;;;;;;;20.72;62.45;99595.22;1787490;80;21014;-74
2022/10/01 11:50:30;;;;;;;2.50;2.30;;;;;;;20.61;62.06;99587.45;1739538;78;21120;-75
2022/10/01 11:53:10;;;;;;;4.60;2.30;;;;;;;20.56;62.31;99590.01;1764625;79;21033;-74